34ème Rallye Terre des Cardabelles
Championnat de France des Rallyes sur Terre
1 2 CUOQ Jean-Marie/GRANDEMANGE Marielle Citroën C4 WRC FA 8W 22:09,9 1
2 6 BAUD Lionel/BAUD Lucie Citroën DS3 WRC A 8W 22:20,3 +00:10,4 +00:10,4 1
3 5 MAURIN Julien/URAL Olivier Citroën DS3 WRC A 8W 22:31,8 +00:21,9 +00:11,5 1
4 3 FERAUD Cyrille/DUCHEMIN Aymeric Citroën C4 WRC FA 8W 22:59,1 +00:49,2 +00:27,3 1
5 4 DURBEC Thibault/RENUCCI Jacques-Julien Citroën DS3 WRC A 8W 23:11,0 +01:01,1 +00:11,9 1
6 8 MORDACQ Arnaud/ROUX Thomas Mitsubishi Lancer Evo9 FN 4 23:17,5 +01:07,6 +00:06,5 1
7 1 BERFA Jordan/AUGUSTIN Damien HUYNDAI i20 R5 R 5 23:18,6 +01:08,7 +00:01,1 1
8 7 SALGUES Gilles/MOUYSSET Jérôme Citroën Xsara WRC FA 8W 23:20,0 +01:10,1 +00:01,4
9 12 PELUTTIERO Thibaud/REICHENECKER Josh Mitsubishi Lancer EvoX R 4 23:57,4 +01:47,5 +00:37,4 1
10 25 MARTI Christian/NOLORGUES Rémi Mitsubishi Lancer Evo9 FN 4 24:08,6 +01:58,7 +00:11,2 1
11 36 LARIO Taisko/RYYNANEN Tatu Peugeot 208 VTI R 2 24:17,7 +02:07,8 +00:09,1 3
12 16 CLARETY Jérôme/LACOSTE Vincent Mitsubishi Lancer EvoX R 4 24:18,6 +02:08,7 +00:00,9
13 40 BLANC Francois-Xavier/DE TURCKHEIM Gilles Peugeot 208 VTI R 2 24:21,3 +02:11,4 +00:02,7 1 2 3
14 31 LLARENA Efren/FERNANDEZ Sara Peugeot 208 VTI R 2 24:21,6 +02:11,7 +00:00,3 3
15 24 CHAYNES Gary/TRIBOUT Christian Mitsubishi Lancer Evo9 FN 4 24:22,0 +02:12,1 +00:00,4 1
16 30 PELLIER Laurent/NEYRET-GIGOT Benoît Peugeot 208 VTI R 2 24:25,0 +02:15,1 +00:03,0 3
17 11 CECCHI Philippe/LETOURNEAU Lara Citroën DS3 R5 R 5 24:25,1 +02:15,2 +00:00,1
18 72 GIORDANENGO Jimmy/DELAMOTTE Alexis Mitsubishi Lancer Evo9 FA 8 24:36,0 +02:26,1 +00:10,9
19 33 PINHEIRO Karl-Alexandre/LE FLOCH Franck Peugeot 208 VTI R 2 24:38,8 +02:28,9 +00:02,8 3
20 35 BOSCH Florentin/TEMPIER Romain Peugeot 208 VTI R 2 24:41,3 +02:31,4 +00:02,5 3
21 32 SAHILA Aki/SUORSA Rami Peugeot 208 VTI R 2 24:47,2 +02:37,3 +00:05,9 3
22 91 DUNAND Alexandre/BROUZE Olivier Subaru Impreza Sti FN 4 24:49,2 +02:39,3 +00:02,0
23 26 JULIA David/AUBERTIN Ludovic Peugeot 206 Rc F2 14 24:59,2 +02:49,3 +00:10,0 1 2
24 34 MAISANO Brandon/PEBEYRE Pierre Peugeot 208 VTI R 2 25:01,5 +02:51,6 +00:02,3 3
25 85 CONDAMINES Florian/CAVAILLES Aurélien Subaru Impreza N 4 25:02,5 +02:52,6 +00:01,0
26 21 ASTIER Loïc/DECLERCK Loïc Citroën DS3 R3 R 3 25:05,4 +02:55,5 +00:02,9 1 2
27 78 MOREL Jean-Luc/GIDEL Philippe Subaru Impreza WRX FN 4 25:12,4 +03:02,5 +00:07,0
28 19 SALIN Daniel/SALIN Brigitte Subaru Impreza WRX R 4 25:15,2 +03:05,3 +00:02,8
29 37 BAUDOIN Thomas/MILLET Kévin Peugeot 208 VTI R 2 25:16,9 +03:07,0 +00:01,7 3
30 64 CROS Olivier/PRIVAT Christophe Subaru Impreza FA 8 25:22,5 +03:12,6 +00:05,6
31 90 VEYRARD Didier/TARDY Vincent Subaru Impreza STI FN 4 25:23,5 +03:13,6 +00:01,0
32 27 MASCLAUX Arnaud/MOULIN Alexandre Renault Clio Ragnotti F2 14 25:23,6 +03:13,7 +00:00,1 1 2
33 39 MOLLARD Alexandre/EYMIN Nicolas Peugeot 208 VTI R 2 25:32,3 +03:22,4 +00:08,7 3
34 17 DESANGLES Yanis/THERON Nicolas Subaru Impreza STI R 4 25:33,8 +03:23,9 +00:01,5
35 41 FRANCESCHI Jean-Baptiste/COURBON Romain Ford Fiesta R2J R 2 25:47,9 +03:38,0 +00:14,1 4
36 70 TARDY Guillaume/CHOUDEY Marc-Emilien Subaru Impreza FA 8 25:48,9 +03:39,0 +00:01,0
37 73 PARISI-FOUQUE Alain/MARSILY Eric Subaru Impreza FA 8 25:51,6 +03:41,7 +00:02,7
38 115 FRANCESCHI Mathieu/MANZO Benoît Citroën C2 R2 R 2 25:58,2 +03:48,3 +00:06,6
39 81 PUEL Gérard/PUEL Caroline Mitsubishi Lancer Evo8 FN 4 25:58,3 +03:48,4 +00:00,1
40 105 GILHODES Damien/GILHODES Jean-Louis Citroën Saxo T4 FA 6K 26:00,7 +03:50,8 +00:02,4
41 28 VITAL Jean-Pierre/DECOUZON Pierre Citroën Saxo VTS F2 13 26:00,9 +03:51,0 +00:00,2 1 2
42 43 FOURMAUX Adrien/PARENT Kévin Ford Fiesta R2J R 2 26:05,0 +03:55,1 +00:04,1 4
43 110 MAUREL Alain/MAUREL Lucile Citroën Saxo T4 FA 6K 26:05,5 +03:55,6 +00:00,5
44 47 CHANTRIAUX Audric/GAREL Romain Ford Fiesta R2J R 2 26:05,5 +03:55,6 4
45 84 FONTAINE Fabien/BARD Jérôme Mitsubishi Lancer Evo5 FN 4 26:11,6 +04:01,7 +00:06,1
46 56 EYDOUX Laurent/MOUTOT Olivier Peugeot 206 XS FA 6K 26:14,3 +04:04,4 +00:02,7
47 44 CARTIER Victor/CRAEN Fabien Ford Fiesta R2J R 2 26:17,6 +04:07,7 +00:03,3 4
48 89 BLANC Jean-Francois/ROL Evelyne Mitsubishi Lancer Evo8 FN 4 26:18,0 +04:08,1 +00:00,4
49 82 SOUMAORO Moriféré/JACQUELIN Pierre Mitsubishi Lancer Evo10 N 4 26:21,0 +04:11,1 +00:03,0
50 49 CORNU Alexandre/FASSOLA Thibault Ford Fiesta R2J R 2 26:26,1 +04:16,2 +00:05,1 4
51 114 ARTIERES Nicolas/VINCENT Frédéric Peugeot 208 VTI R 2 26:33,9 +04:24,0 +00:07,8
52 106 LUCADOU Dominique/LUCADOU Joris Citroën Saxo T4 FA 6K 26:34,5 +04:24,6 +00:00,6
53 48 GIUSTI Igor/DINI Gilbert Ford Fiesta R2J R 2 26:35,8 +04:25,9 +00:01,3 4
54 29 SABATIER Florent/SANTIAGO Thomas Peugeot 106 S16 FA 6 26:36,2 +04:26,3 +00:00,4 1 2
55 87 CALAMEL Carol/CALAMEL Amélie Subaru Impreza FN 4 26:36,4 +04:26,5 +00:00,2
56 62 MAUREL Yves/MAUREL Maxime Peugeot 207 S2000 FA 7S 26:42,8 +04:32,9 +00:06,4
57 109 MAS Paul/BERTRAND Nathalie Citroën Saxo T4 FA 6K 26:50,8 +04:40,9 +00:08,0
58 77 CALMELS Pierre/BONALDI Xavier Citroën DS3 R3 R 3 26:51,8 +04:41,9 +00:01,0
59 63 LOPEZ Etienne/MERCIER Marjorie Subaru Impreza WRX FA 8 26:57,1 +04:47,2 +00:05,3
60 20 MORAES Henri/MORAES Anthony Subaru Impreza WRX FA 8 27:00,5 +04:50,6 +00:03,4 1
61 116 JOUINES Jean/CHABBERT Martin Opel Adam Rally R FR2 27:01,9 +04:52,0 +00:01,4
62 108 THEROND Nicolas/BAFFALIE François Citroën Saxo T4 FA 6K 27:04,3 +04:54,4 +00:02,4
63 120 BOUZID Lilian/VERGNES Antony Peugeot 306 S16 FA 7 27:04,7 +04:54,8 +00:00,4
64 66 MARON-GIRARD Alain/GRENIER Bernard Mitsubishi Lancer Evo9 FA 8 27:05,3 +04:55,4 +00:00,6
65 51 MOUSTIN Doriann/DESNOYERS Alexia Ford Fiesta R2J R 2 27:08,3 +04:58,4 +00:03,0 4
66 46 CURIOZ Benjamin/BEERENS Pierre Ford Fiesta R2J R 2 27:10,1 +05:00,2 +00:01,8 4
67 45 GANDELLI David/BIAGETTI Loan Ford Fiesta R2J R 2 27:12,8 +05:02,9 +00:02,7 4
68 50 PONTAL Julien/BARRAL Florian Ford Fiesta R2J R 2 27:14,4 +05:04,5 +00:01,6 4
69 23 CHAPUS Serge/FAVREAU Mathieu Citroën DS3 R3 R 3 27:14,5 +05:04,6 +00:00,1 1 2
70 86 ECK Jean-Luc/ECK Aurélien Subaru Impreza WRX FN 4 27:18,8 +05:08,9 +00:04,3
71 104 MARCOBAL Thierry/BOYER Jean-Francois Citroën Saxo T4 FA 6K 27:20,5 +05:10,6 +00:01,7
72 125 PANSARD Olivier/GIOVANELLI Christophe Peugeot 205 GTI FA 7 27:22,5 +05:12,6 +00:02,0
73 142 CHENEVAY Rémy/ESCARTEFIGUE Jules Citroën Saxo VTS FA 6 27:24,1 +05:14,2 +00:01,6
74 98 ROUCOULY Mathieu/MONNERON Lionel Peugeot 309 GTI F2 14 27:31,0 +05:21,1 +00:06,9
75 126 ROCHER Arnaud/PAULHAN Sabine Renault Clio RS FA 7 27:32,9 +05:23,0 +00:01,9
76 100 MOULIN François/BONNET Dorine Renault Clio RS F2 14 27:34,6 +05:24,7 +00:01,7
77 124 VIALA Jérôme/ROUBY Nathan Peugeot 206 Rc FA 7 27:34,7 +05:24,8 +00:00,1
78 67 MONNIER Alain/JAMAGOTCHIAN Cyril Subaru Impreza Sti FA 8 27:41,7 +05:31,8 +00:07,0
79 68 PASQUALINI Pierre/OLLARI Gérard B.M.W. 325i FA 8 27:42,5 +05:32,6 +00:00,8
80 128 LESCURE Philippe/ESCAICH Bertrand Peugeot 306 S16 FA 7 27:43,2 +05:33,3 +00:00,7
81 95 BONALDI Pierre-Benoit/CANTANHEDE Bruno Peugeot 306 S16 F2 14 27:45,4 +05:35,5 +00:02,2
82 53 VIAROUGE David/BENZAL Aurélien Ford Fiesta R2J R 2 27:49,4 +05:39,5 +00:04,0 4
83 132 ARTZNER Mathieu/GIRARD Vincent Peugeot 206 XS F2 13 27:56,0 +05:46,1 +00:06,6
84 65 JARLAN Maxime/CAMALY Thierry Subaru Impreza FA 8 27:57,1 +05:47,2 +00:01,1
85 107 CHASSANIOL Jacky/CUBIZOLLES Arnaud Citroën Saxo T4 FA 6K 28:01,5 +05:51,6 +00:04,4
86 137 GELAS Fabrice/BARRACHIN Florian Peugeot 106 S16 F2 13 28:01,6 +05:51,7 +00:00,1
87 140 RALITE Christophe/ABBAL Marie Peugeot 106 S16 FA 6 28:12,4 +06:02,5 +00:10,8
88 111 ESPALIEU David/NUNES Robert Citroën Saxo T4 FA 6K 28:13,4 +06:03,5 +00:01,0
89 118 GABEREL Nicolas/VILANOVA Teddy Peugeot 208 VTI R 2 28:14,3 +06:04,4 +00:00,9
90 129 BRAJON Ludovic/SALANSON Thierry Renault Clio RS FN 3 28:20,4 +06:10,5 +00:06,1
91 74 ROUGIER Régis/SUBE Ludovic Subaru Impreza WRX FA 8 28:26,8 +06:16,9 +00:06,4
92 55 GILLET Nicolas/CORIA Alexandre Ford Fiesta R2J R 2 28:28,3 +06:18,4 +00:01,5 4
93 127 TROMEL Frank/TROMEL Corinne Peugeot 206 Rc FA 7 28:28,7 +06:18,8 +00:00,4
94 123 FRELAUT Yohann/CASSAGNADE Pascal Peugeot 206 Rc FA 7 28:35,4 +06:25,5 +00:06,7
95 52 VIANO Allison/CHOL Cecilia Ford Fiesta R2J R 2 28:57,1 +06:47,2 +00:21,7 4
96 139 MOLINA Gerome/RENARD Aurélien Dacia Logan F2 13 29:07,6 +06:57,7 +00:10,5
97 59 CLEMENT Frédéric/COSTES François Peugeot 206 Rc F2 14 29:08,8 +06:58,9 +00:01,2 1 2
98 112 BIAU Jean-Luc/BROLIQUET Eric Peugeot 206 XS FA 6K 29:13,6 +07:03,7 +00:04,8
99 93 CHARRIE Yoann/JAMMES Yannick Peugeot 206 Rc F2 14 29:14,8 +07:04,9 +00:01,2
100 121 GAGNEUR Hervé/DESNOYERS Jean-Philippe Peugeot 306 S16 FA 7 29:21,4 +07:11,5 +00:06,6
101 117 LEYGUE Laurent/GEORGE Nicolas Peugeot 208 VTI R 2 29:33,2 +07:23,3 +00:11,8
102 135 GERMAIN Alex/POIROT Edgard Peugeot 205 GTI F2 13 29:42,4 +07:32,5 +00:09,2
103 102 VIDAL Marc/MONTARON Loïc Peugeot 309 GTI 16S F2 14 30:07,6 +07:57,7 +00:25,2
104 136 MAJOREL Clément/GINESTE Elsa Peugeot 106 S16 F2 13 30:15,5 +08:05,6 +00:07,9
105 122 GUILLON Jean-Luc/NEGRE Jean-Pierre Peugeot 206 GT FA 7 30:26,4 +08:16,5 +00:10,9
106 61 BELLIARDO Daniel/BRAQUET Jean-Baptiste Peugeot 306 S16 FN 3 31:00,3 +08:50,4 +00:33,9 1 2
107 147 AGNIEL Damien/PAYSAN Jean-Paul Peugeot 106 XSI FN 2 31:08,5 +08:58,6 +00:08,2
108 119 EXBRAYAT Jérôme/SAGNARD Franck Ford Fiesta R2 R 2 31:08,8 +08:58,9 +00:00,3
109 144 PORTAL Kévin/YONNET Fabien Ford Fiesta R1 R 1 31:16,1 +09:06,2 +00:07,3
110 9 PETIT Jean-Eric/MAURIN Mathieu Ford Fiesta R5 R 5 31:18,6 +09:08,7 +00:02,5 1
111 94 MARTIN Gary/FACCIO Alexandra Peugeot 106 S16 F2 13 31:24,6 +09:14,7 +00:06,0
112 96 BARAT DA COSTA RODRIGO Tony/LOPEZ Yannick B.M.W. 320i F2 14 31:31,6 +09:21,7 +00:07,0
113 146 FRANCOIS Léa/FRANCOIS Solene Peugeot 106 S16 FN 2 31:47,6 +09:37,7 +00:16,0
114 131 PIQUERAS Jérôme/BLANC Morgan Peugeot 205 GTI F2 13 32:09,3 +09:59,4 +00:21,7
115 145 LATIEZE Yvan/GOUY Cindy Peugeot 106 S16 FN 2 32:57,7 +10:47,8 +00:48,4
116 143 POUGET Dorian/BERNARD Kévin Peugeot 106 XSI FA 5K 33:20,2 +11:10,3 +00:22,5
117 149 BES Yves/BURGUIERE Alexis Peugeot 106 XR F2 11 33:50,1 +11:40,2 +00:29,9
118 148 LEMAIRE Yoann/POMAREDE Marc Citroën Saxo VTS F2 12 35:44,7 +13:34,8 +01:54,6
119 138 PICARD Erick/LEBRETTON Amandine Dacia Logan F2 13 37:58,9 +15:49,0 +02:14,2
Clt Equipage Voiture Gr/Cl Temps Ecart 1er Ecart préc. Catégories
Commentaires: © PatricK Soft  
(Temps forfaitaires=couleur bleue)
Classés:119

Epreuve: Groupe: Catégorie:

 
Retour
Classement après ES2-LHospitalet 1 (15.000 km)